Time;durP1;ratioP1;P1;durP2;ratioP2;P2;SDS_P1;SDS_P2;PMS_P1;PMS_P2;Temp;Humidity;BMP_temperature;BMP_pressure;BME280_temperature;BME280_humidity;BME280_pressure;Samples;Min_cycle;Max_cycle;Signal;HPM_P1;HPM_P2
2022/11/25 00:00:52;;;;;;;9.63;4.50;;;5.50;99.90;;;;;;4996538;28;20434;-75
2022/11/25 00:03:18;;;;;;;5.73;3.87;;;5.40;99.90;;;;;;4996263;28;20431;-76
2022/11/25 00:05:44;;;;;;;6.10;3.63;;;5.50;99.90;;;;;;4996328;28;20188;-75
2022/11/25 00:08:09;;;;;;;14.53;4.23;;;5.60;99.90;;;;;;4995839;28;20239;-75
2022/11/25 00:10:35;;;;;;;6.73;4.60;;;5.60;99.90;;;;;;4996260;28;20679;-75
2022/11/25 00:13:00;;;;;;;6.97;4.30;;;5.60;99.90;;;;;;4978347;28;20185;-75
2022/11/25 00:15:26;;;;;;;5.83;4.30;;;5.50;99.90;;;;;;4995298;28;20191;-75
2022/11/25 00:17:52;;;;;;;7.27;3.83;;;5.50;99.90;;;;;;4995033;28;20167;-75
2022/11/25 00:20:21;;;;;;;6.43;3.97;;;5.40;99.90;;;;;;4996337;28;20181;-75
2022/11/25 00:22:47;;;;;;;8.17;4.93;;;5.50;99.90;;;;;;5000697;28;20177;-75
2022/11/25 00:25:13;;;;;;;5.37;4.20;;;5.40;99.90;;;;;;5009583;28;20446;-75
2022/11/25 00:27:38;;;;;;;8.33;4.77;;;5.50;99.90;;;;;;4994964;28;20536;-75
2022/11/25 00:30:04;;;;;;;7.53;4.77;;;5.50;99.90;;;;;;4995312;28;20687;-75
2022/11/25 00:32:30;;;;;;;7.33;4.10;;;5.50;99.90;;;;;;4996085;28;20173;-75
2022/11/25 00:34:56;;;;;;;9.57;5.97;;;5.50;99.90;;;;;;4993250;28;20442;-75
2022/11/25 00:37:21;;;;;;;6.00;4.57;;;5.50;99.90;;;;;;4995735;28;20536;-75
2022/11/25 00:39:47;;;;;;;13.30;6.67;;;5.40;99.90;;;;;;4995772;28;20162;-75
2022/11/25 00:44:56;;;;;;;10.33;5.93;;;5.60;99.90;;;;;;4995414;28;20164;-75
2022/11/25 00:47:22;;;;;;;11.10;5.60;;;5.70;99.90;;;;;;4994472;28;20807;-74
2022/11/25 00:49:50;;;;;;;8.30;5.70;;;5.80;99.90;;;;;;4994599;28;20164;-75
2022/11/25 00:52:18;;;;;;;9.23;6.23;;;6.00;99.90;;;;;;4994624;28;20167;-75
2022/11/25 00:54:45;;;;;;;7.70;4.80;;;6.00;99.90;;;;;;4994472;28;20412;-75
2022/11/25 00:57:11;;;;;;;10.70;6.30;;;6.00;99.90;;;;;;4994055;28;20510;-75
2022/11/25 00:59:37;;;;;;;23.20;16.50;;;6.00;99.90;;;;;;4994512;28;20404;-75
2022/11/25 01:02:03;;;;;;;37.80;26.20;;;5.90;99.90;;;;;;4994943;28;20492;-75
2022/11/25 01:04:28;;;;;;;27.77;18.70;;;6.00;99.90;;;;;;4994330;28;20201;-74
2022/11/25 01:06:55;;;;;;;9.53;6.50;;;6.20;99.90;;;;;;4994064;28;20174;-75
2022/11/25 01:09:21;;;;;;;12.87;6.40;;;6.10;99.90;;;;;;4993182;28;20177;-75
2022/11/25 01:11:50;;;;;;;11.10;6.23;;;6.20;99.90;;;;;;4994550;28;20412;-75
2022/11/25 01:14:15;;;;;;;5.70;4.53;;;6.20;99.90;;;;;;4994359;28;20201;-75
2022/11/25 01:16:41;;;;;;;4.70;4.27;;;6.00;99.90;;;;;;4976592;28;20790;-75
2022/11/25 01:19:07;;;;;;;6.00;4.60;;;6.10;99.90;;;;;;4994415;28;20167;-75
2022/11/25 01:21:33;;;;;;;6.80;4.47;;;6.30;99.90;;;;;;4994058;28;20268;-75
2022/11/25 01:24:01;;;;;;;6.47;5.40;;;6.40;99.90;;;;;;4993419;28;20254;-75
2022/11/25 01:26:27;;;;;;;9.00;3.90;;;6.50;99.90;;;;;;4993942;28;20404;-75
2022/11/25 01:28:58;;;;;;;5.53;4.10;;;6.60;99.90;;;;;;4992577;28;20486;-75
2022/11/25 01:31:28;;;;;;;5.20;4.70;;;6.70;99.90;;;;;;4994047;28;20422;-75
2022/11/25 01:34:00;;;;;;;4.80;4.30;;;6.70;99.90;;;;;;4993940;28;20424;-75
2022/11/25 01:36:26;;;;;;;8.23;4.90;;;6.70;99.90;;;;;;4993936;28;20483;-75
2022/11/25 01:38:54;;;;;;;6.73;4.07;;;6.60;99.90;;;;;;4994271;28;20784;-75
2022/11/25 01:41:22;;;;;;;5.90;4.63;;;6.60;99.90;;;;;;4993026;28;20427;-75
2022/11/25 01:44:05;;;;;;;7.80;4.10;;;6.70;99.90;;;;;;4993923;28;20777;-75
2022/11/25 01:46:41;;;;;;;9.30;3.90;;;6.70;99.90;;;;;;4993351;28;20408;-73
2022/11/25 01:49:15;;;;;;;4.90;3.63;;;6.70;99.90;;;;;;4992785;28;20550;-74
2022/11/25 01:51:57;;;;;;;10.77;4.07;;;6.80;99.90;;;;;;4994006;28;20463;-74
2022/11/25 01:54:25;;;;;;;6.57;3.97;;;6.80;99.90;;;;;;4993390;28;20424;-74
2022/11/25 01:57:17;;;;;;;7.63;4.80;;;6.80;99.90;;;;;;4993522;28;20892;-74
2022/11/25 01:59:49;;;;;;;5.53;3.87;;;6.80;99.90;;;;;;4968175;28;21076;-75
2022/11/25 02:02:16;;;;;;;8.33;3.67;;;6.70;99.90;;;;;;4974561;28;20846;-74
2022/11/25 02:04:43;;;;;;;4.53;4.10;;;6.70;99.90;;;;;;4974267;28;20840;-75
2022/11/25 02:07:26;;;;;;;8.30;4.37;;;6.70;99.90;;;;;;4974289;28;20456;-75
2022/11/25 02:09:52;;;;;;;5.03;3.97;;;6.80;99.90;;;;;;4974822;28;20930;-75
2022/11/25 02:12:20;;;;;;;6.50;4.43;;;6.90;99.90;;;;;;4973977;28;20432;-74
2022/11/25 02:14:48;;;;;;;6.73;4.70;;;6.80;99.90;;;;;;4977675;28;20812;-74
2022/11/25 02:17:14;;;;;;;4.20;3.67;;;6.80;99.90;;;;;;4992263;28;20432;-74
2022/11/25 02:19:44;;;;;;;7.53;4.00;;;6.90;99.90;;;;;;4993481;28;20470;-74
2022/11/25 02:22:20;;;;;;;6.70;4.10;;;6.90;99.90;;;;;;4995565;28;20691;-74
2022/11/25 02:24:49;;;;;;;6.37;4.23;;;6.90;99.90;;;;;;4993447;28;20388;-74
2022/11/25 02:27:16;;;;;;;5.40;4.27;;;6.80;99.90;;;;;;4992998;28;20448;-75
2022/11/25 02:29:43;;;;;;;10.20;5.20;;;6.80;99.90;;;;;;4991528;28;20419;-74
2022/11/25 02:32:08;;;;;;;5.10;4.23;;;6.70;99.90;;;;;;4993197;28;20443;-74
2022/11/25 02:34:34;;;;;;;9.33;4.47;;;6.60;99.90;;;;;;4992165;28;20467;-75
2022/11/25 02:37:00;;;;;;;4.67;3.77;;;6.50;99.90;;;;;;4992959;28;20288;-74
2022/11/25 02:39:26;;;;;;;5.63;3.83;;;6.50;99.90;;;;;;4992924;28;20203;-75
2022/11/25 02:41:57;;;;;;;5.90;4.30;;;6.50;99.90;;;;;;4992157;28;20450;-74
2022/11/25 02:44:23;;;;;;;5.90;4.17;;;6.50;99.90;;;;;;4975105;28;20432;-75
2022/11/25 02:46:49;;;;;;;8.00;4.67;;;6.40;99.90;;;;;;4993213;28;20928;-74
2022/11/25 02:49:15;;;;;;;7.17;5.27;;;6.40;99.90;;;;;;4974902;28;20723;-75
2022/11/25 02:51:43;;;;;;;8.33;4.20;;;6.30;99.90;;;;;;4993227;28;20201;-75
2022/11/25 02:54:10;;;;;;;5.50;4.90;;;6.30;99.90;;;;;;4993394;28;20548;-74
2022/11/25 02:56:36;;;;;;;5.60;5.00;;;6.30;99.90;;;;;;4993559;28;20539;-75
2022/11/25 02:59:03;;;;;;;7.97;4.67;;;6.30;99.90;;;;;;4996572;28;20444;-75
2022/11/25 03:01:30;;;;;;;5.87;4.00;;;6.20;99.90;;;;;;4997084;28;20414;-75
2022/11/25 03:03:56;;;;;;;4.93;3.67;;;6.20;99.90;;;;;;4997222;28;20429;-74
2022/11/25 03:06:21;;;;;;;6.63;4.57;;;6.20;99.90;;;;;;4996969;28;20415;-74
2022/11/25 03:08:47;;;;;;;10.30;4.57;;;6.20;99.90;;;;;;4996947;28;20504;-74
2022/11/25 03:11:13;;;;;;;7.07;3.70;;;6.20;99.90;;;;;;4997076;28;20191;-74
2022/11/25 03:13:39;;;;;;;5.70;4.57;;;6.20;99.90;;;;;;4996846;28;20203;-74
2022/11/25 03:16:05;;;;;;;6.90;3.73;;;6.10;99.90;;;;;;4996940;28;20199;-74
2022/11/25 03:18:30;;;;;;;7.50;4.13;;;6.00;99.90;;;;;;4996720;28;20412;-74
2022/11/25 03:20:56;;;;;;;4.57;4.17;;;6.00;99.90;;;;;;4996663;28;20562;-74
2022/11/25 03:23:22;;;;;;;6.63;4.70;;;6.10;99.90;;;;;;4996684;28;20216;-74
2022/11/25 03:25:47;;;;;;;6.70;5.30;;;6.10;99.90;;;;;;4996698;28;20179;-74
2022/11/25 03:28:13;;;;;;;7.13;4.60;;;6.10;99.90;;;;;;4978975;28;20221;-74
2022/11/25 03:30:40;;;;;;;7.63;4.00;;;5.90;99.90;;;;;;4995387;28;20173;-74
2022/11/25 03:33:05;;;;;;;5.50;4.43;;;5.80;99.90;;;;;;4996664;28;20188;-74
2022/11/25 03:35:31;;;;;;;8.20;5.17;;;5.80;99.90;;;;;;4995572;28;20435;-74
2022/11/25 03:37:57;;;;;;;6.63;4.30;;;5.70;99.90;;;;;;4996111;28;20169;-74
2022/11/25 03:40:22;;;;;;;7.70;4.50;;;5.60;99.90;;;;;;4996711;28;20660;-75
2022/11/25 03:42:48;;;;;;;6.20;4.40;;;5.70;99.90;;;;;;4996196;28;20200;-75
2022/11/25 03:45:15;;;;;;;4.30;3.40;;;5.80;99.90;;;;;;4995490;28;20185;-75
2022/11/25 03:47:42;;;;;;;5.73;4.37;;;5.80;99.90;;;;;;4996376;28;20221;-74
2022/11/25 03:50:09;;;;;;;8.77;3.80;;;5.80;99.90;;;;;;4996258;28;20407;-75
2022/11/25 03:52:35;;;;;;;6.23;4.40;;;5.90;99.90;;;;;;4978268;28;20426;-75
2022/11/25 03:55:00;;;;;;;7.33;4.23;;;5.80;99.90;;;;;;4996426;28;20496;-76
2022/11/25 03:57:26;;;;;;;4.97;3.70;;;5.90;99.90;;;;;;4995463;28;20415;-76
2022/11/25 03:59:52;;;;;;;6.40;4.20;;;5.80;99.90;;;;;;4996677;28;20191;-75
2022/11/25 04:02:17;;;;;;;5.40;3.93;;;5.80;99.90;;;;;;4996328;28;20183;-75
2022/11/25 04:04:43;;;;;;;7.93;3.30;;;5.80;99.90;;;;;;4996982;28;20169;-75
2022/11/25 04:07:08;;;;;;;7.30;4.63;;;5.80;99.90;;;;;;4995319;28;20196;-75
2022/11/25 04:09:34;;;;;;;5.17;3.67;;;5.70;99.90;;;;;;4996112;28;20176;-75
2022/11/25 04:14:44;;;;;;;7.37;3.60;;;5.60;99.90;;;;;;4997744;28;20171;-74
2022/11/25 04:17:10;;;;;;;5.23;3.53;;;5.60;99.90;;;;;;4997680;28;20491;-74
2022/11/25 04:19:35;;;;;;;9.57;3.60;;;5.60;99.90;;;;;;4997920;28;20630;-74
2022/11/25 04:22:01;;;;;;;3.70;3.33;;;5.70;99.90;;;;;;4995683;28;20172;-74
2022/11/25 04:24:27;;;;;;;5.00;3.70;;;5.70;99.90;;;;;;4995917;28;20188;-75
2022/11/25 04:26:53;;;;;;;5.30;3.00;;;5.80;99.90;;;;;;4996397;28;20412;-75
2022/11/25 04:29:19;;;;;;;4.40;3.00;;;5.70;99.90;;;;;;4999658;28;20828;-74
2022/11/25 04:31:45;;;;;;;3.43;3.13;;;5.80;99.90;;;;;;5015604;28;20803;-75
2022/11/25 04:34:10;;;;;;;5.20;3.07;;;5.80;99.90;;;;;;5014976;28;20431;-75
2022/11/25 04:36:36;;;;;;;6.07;4.20;;;5.90;99.90;;;;;;5002245;28;20274;-74
2022/11/25 04:39:02;;;;;;;5.97;3.57;;;5.80;99.90;;;;;;4995686;28;20220;-75
2022/11/25 04:41:28;;;;;;;4.03;3.13;;;5.80;99.90;;;;;;4995845;28;20341;-74
2022/11/25 04:43:53;;;;;;;4.33;3.00;;;5.80;99.90;;;;;;4995683;28;20794;-75
2022/11/25 04:46:22;;;;;;;4.83;3.10;;;5.90;99.90;;;;;;4995637;28;20212;-75
2022/11/25 04:48:48;;;;;;;5.57;3.20;;;5.90;99.90;;;;;;4995761;28;20197;-75
2022/11/25 04:51:14;;;;;;;3.83;3.43;;;6.00;99.90;;;;;;4977216;28;20419;-75
2022/11/25 04:53:40;;;;;;;7.60;3.80;;;6.00;99.90;;;;;;4995049;28;20424;-75
2022/11/25 04:56:05;;;;;;;8.30;3.90;;;6.00;99.90;;;;;;4995271;28;20168;-75
2022/11/25 05:01:15;;;;;;;7.03;3.73;;;6.00;99.90;;;;;;4996313;28;20179;-75
2022/11/25 05:03:41;;;;;;;3.07;2.77;;;6.00;99.90;;;;;;4997620;28;20431;-75
2022/11/25 05:06:08;;;;;;;3.77;2.87;;;6.10;99.90;;;;;;4999286;28;20185;-75
2022/11/25 05:08:34;;;;;;;6.23;4.60;;;6.00;99.90;;;;;;5011096;28;20188;-75
2022/11/25 05:11:00;;;;;;;6.30;4.33;;;5.90;99.90;;;;;;5010228;28;20408;-75
2022/11/25 05:13:25;;;;;;;6.07;5.53;;;5.90;99.90;;;;;;5005814;28;20444;-75
2022/11/25 05:15:51;;;;;;;7.63;6.00;;;5.80;99.90;;;;;;5006533;28;20173;-76
2022/11/25 05:18:17;;;;;;;6.60;5.90;;;5.70;99.90;;;;;;5004043;28;20259;-75
2022/11/25 05:20:43;;;;;;;6.80;6.10;;;5.80;99.90;;;;;;5003459;28;20239;-74
2022/11/25 05:23:08;;;;;;;7.30;5.30;;;5.80;99.90;;;;;;5005633;28;20296;-76
2022/11/25 05:25:34;;;;;;;7.47;5.40;;;5.80;99.90;;;;;;5005432;28;20416;-75
2022/11/25 05:28:00;;;;;;;6.77;5.23;;;5.90;99.90;;;;;;5003554;28;20204;-75
2022/11/25 05:30:26;;;;;;;8.60;4.70;;;5.80;99.90;;;;;;4969326;28;20195;-74
2022/11/25 05:32:51;;;;;;;9.80;5.80;;;5.80;99.90;;;;;;4994692;28;20443;-75
2022/11/25 05:35:17;;;;;;;11.00;5.07;;;5.80;99.90;;;;;;4994204;28;20558;-75
2022/11/25 05:37:43;;;;;;;6.00;5.37;;;5.80;99.90;;;;;;4994061;28;20531;-75
2022/11/25 05:40:10;;;;;;;7.17;4.70;;;5.80;99.90;;;;;;4994156;28;20899;-75
2022/11/25 05:42:35;;;;;;;9.50;6.73;;;5.70;99.90;;;;;;4993835;28;20409;-74
2022/11/25 05:45:01;;;;;;;11.40;7.30;;;5.70;99.90;;;;;;4993641;28;20427;-75
2022/11/25 05:47:27;;;;;;;16.43;12.63;;;5.80;99.90;;;;;;4994066;28;20204;-75
2022/11/25 05:49:52;;;;;;;7.53;5.90;;;5.70;99.90;;;;;;4994193;28;20173;-75
2022/11/25 05:52:18;;;;;;;9.70;6.80;;;5.70;99.90;;;;;;4994174;28;20653;-74
2022/11/25 05:54:44;;;;;;;8.40;6.20;;;5.60;99.90;;;;;;4993342;28;20256;-74
2022/11/25 05:57:09;;;;;;;9.50;6.60;;;5.60;99.90;;;;;;4994464;28;20177;-76
2022/11/25 05:59:35;;;;;;;8.33;6.83;;;5.60;99.90;;;;;;4994938;28;20702;-75
2022/11/25 06:02:00;;;;;;;6.13;5.50;;;5.60;99.90;;;;;;4994977;28;20611;-74
2022/11/25 06:04:26;;;;;;;9.83;6.47;;;5.50;99.90;;;;;;4993549;28;20192;-75
2022/11/25 06:06:51;;;;;;;10.87;9.30;;;5.50;99.90;;;;;;4993117;28;20208;-74
2022/11/25 06:09:17;;;;;;;9.60;8.60;;;5.40;99.90;;;;;;4975235;28;20176;-74
2022/11/25 06:11:43;;;;;;;9.23;7.77;;;5.50;99.90;;;;;;4993661;28;20184;-74
2022/11/25 06:14:08;;;;;;;12.07;8.80;;;5.50;99.90;;;;;;4993133;28;20299;-74
2022/11/25 06:16:34;;;;;;;11.23;10.13;;;5.40;99.90;;;;;;4993427;28;20553;-75
2022/11/25 06:19:04;;;;;;;13.87;10.20;;;5.30;99.90;;;;;;4975898;28;20227;-74
2022/11/25 06:21:30;;;;;;;15.80;12.17;;;5.30;99.90;;;;;;4992499;28;20187;-74
2022/11/25 06:23:55;;;;;;;19.53;16.67;;;5.20;99.90;;;;;;4993460;28;20436;-74
2022/11/25 06:26:21;;;;;;;11.10;9.57;;;5.10;99.90;;;;;;4993181;28;20275;-75
2022/11/25 06:28:51;;;;;;;8.77;7.83;;;5.10;99.90;;;;;;4992720;28;20243;-75
2022/11/25 06:31:19;;;;;;;12.30;8.50;;;5.10;99.90;;;;;;4991143;28;20431;-76
2022/11/25 06:33:46;;;;;;;9.27;7.13;;;5.10;99.90;;;;;;4993054;28;20434;-76
2022/11/25 06:36:16;;;;;;;9.93;7.90;;;5.00;99.90;;;;;;4992939;28;20479;-76
2022/11/25 06:38:46;;;;;;;7.20;6.40;;;5.00;99.90;;;;;;4995608;28;20543;-76
2022/11/25 06:41:12;;;;;;;13.07;8.70;;;5.00;99.90;;;;;;4992983;28;20435;-76
2022/11/25 06:43:38;;;;;;;13.27;10.40;;;5.00;99.90;;;;;;4991310;28;20498;-76
2022/11/25 06:46:08;;;;;;;12.63;11.10;;;5.00;99.90;;;;;;4992684;28;20449;-75
2022/11/25 06:48:35;;;;;;;10.83;9.73;;;5.00;99.90;;;;;;4976000;28;20508;-75
2022/11/25 06:51:04;;;;;;;11.73;10.20;;;5.10;99.90;;;;;;4992754;28;20408;-77
2022/11/25 06:53:31;;;;;;;7.30;6.60;;;5.10;99.90;;;;;;4991703;28;20442;-76
2022/11/25 06:56:16;;;;;;;10.27;8.93;;;5.20;99.90;;;;;;4992497;28;20435;-76
2022/11/25 06:58:43;;;;;;;13.27;10.33;;;5.20;99.90;;;;;;4992840;28;20404;-76
2022/11/25 07:01:20;;;;;;;12.50;9.80;;;5.10;99.90;;;;;;4992681;28;20420;-76
2022/11/25 07:03:48;;;;;;;13.63;9.40;;;5.00;99.90;;;;;;4992779;28;20435;-76
2022/11/25 07:06:15;;;;;;;13.10;9.20;;;5.10;99.90;;;;;;4992314;28;20404;-76
2022/11/25 07:08:42;;;;;;;12.10;8.47;;;5.20;99.90;;;;;;4992024;28;20582;-76
2022/11/25 07:11:17;;;;;;;12.83;9.07;;;5.40;99.90;;;;;;4992548;28;20404;-76
2022/11/25 07:13:44;;;;;;;14.43;8.13;;;5.50;99.90;;;;;;4992159;28;20462;-76
2022/11/25 07:16:10;;;;;;;8.87;6.70;;;5.60;99.90;;;;;;4992366;28;20415;-76
2022/11/25 07:18:38;;;;;;;10.00;6.63;;;5.70;99.90;;;;;;4992568;28;20956;-75
2022/11/25 07:21:09;;;;;;;12.10;9.33;;;5.80;99.90;;;;;;4992541;28;20434;-76
2022/11/25 07:23:36;;;;;;;12.30;10.20;;;5.90;99.90;;;;;;4992582;28;20487;-76
2022/11/25 07:26:09;;;;;;;10.53;9.00;;;6.00;99.90;;;;;;4991661;28;20865;-76
2022/11/25 07:28:35;;;;;;;10.87;9.87;;;6.10;99.90;;;;;;4992666;28;20435;-76
2022/11/25 07:31:10;;;;;;;18.70;12.70;;;6.10;99.90;;;;;;4991530;28;21011;-75
2022/11/25 07:33:36;;;;;;;11.20;10.10;;;6.20;99.90;;;;;;4992162;28;20442;-75
2022/11/25 07:36:07;;;;;;;12.80;10.07;;;6.40;99.90;;;;;;4992254;28;20424;-76
2022/11/25 07:38:33;;;;;;;10.37;8.73;;;6.40;99.90;;;;;;4992438;28;20205;-76
2022/11/25 07:41:04;;;;;;;10.60;8.63;;;6.50;99.90;;;;;;4993616;28;20420;-76
2022/11/25 07:43:30;;;;;;;9.43;6.90;;;6.50;99.90;;;;;;4994489;28;20451;-76
2022/11/25 07:46:06;;;;;;;9.80;6.80;;;6.40;99.90;;;;;;4996430;28;20411;-77
2022/11/25 07:48:31;;;;;;;6.93;6.23;;;6.50;99.90;;;;;;4996485;28;20506;-77
2022/11/25 07:50:57;;;;;;;10.70;6.90;;;6.50;99.90;;;;;;4997007;28;20431;-77
2022/11/25 07:53:22;;;;;;;7.60;4.60;;;6.60;99.90;;;;;;4978678;28;20208;-77
2022/11/25 07:55:48;;;;;;;6.40;5.57;;;6.90;99.90;;;;;;4997984;28;20645;-78
2022/11/25 07:58:13;;;;;;;9.57;5.87;;;7.00;99.90;;;;;;4997032;28;20178;-76
2022/11/25 08:00:39;;;;;;;15.43;8.93;;;7.10;99.90;;;;;;4997385;28;20170;-78
2022/11/25 08:03:04;;;;;;;11.20;6.83;;;7.10;99.90;;;;;;4997396;28;20195;-78
2022/11/25 08:05:32;;;;;;;12.30;5.87;;;7.20;99.90;;;;;;4980142;28;20190;-78
2022/11/25 08:07:58;;;;;;;10.43;5.77;;;7.40;99.90;;;;;;4995614;28;20230;-78
2022/11/25 08:10:23;;;;;;;8.90;6.27;;;7.30;99.90;;;;;;4997212;28;20411;-77
2022/11/25 08:12:49;;;;;;;7.97;5.97;;;7.30;99.90;;;;;;4997579;28;20318;-77
2022/11/25 08:15:14;;;;;;;8.77;6.40;;;7.30;99.90;;;;;;4996318;28;20194;-78
2022/11/25 08:17:40;;;;;;;13.37;6.90;;;7.40;99.90;;;;;;4996429;28;20182;-78
2022/11/25 08:20:06;;;;;;;15.83;7.30;;;7.40;99.90;;;;;;4996018;28;20183;-77
2022/11/25 08:22:32;;;;;;;9.87;6.90;;;7.50;99.90;;;;;;4996269;28;20217;-77
2022/11/25 08:24:57;;;;;;;6.03;4.40;;;7.70;99.90;;;;;;4997510;28;20455;-79
2022/11/25 08:27:23;;;;;;;6.67;5.00;;;7.80;99.90;;;;;;4996339;28;20233;-78
2022/11/25 08:29:48;;;;;;;9.43;5.73;;;7.80;99.90;;;;;;4997707;28;20170;-78
2022/11/25 08:32:14;;;;;;;8.37;6.23;;;8.00;99.90;;;;;;4998441;28;20192;-78
2022/11/25 08:34:41;;;;;;;7.40;5.10;;;8.30;99.90;;;;;;4999439;28;20684;-78
2022/11/25 08:37:06;;;;;;;10.30;5.40;;;8.40;99.90;;;;;;4994596;28;20177;-77
2022/11/25 08:39:32;;;;;;;6.03;5.27;;;8.50;99.90;;;;;;4995907;28;20422;-77
2022/11/25 08:41:58;;;;;;;7.93;5.20;;;8.60;99.90;;;;;;4994685;28;20542;-77
2022/11/25 08:44:27;;;;;;;6.90;5.57;;;8.80;99.90;;;;;;4995452;28;20198;-77
2022/11/25 08:46:52;;;;;;;6.27;5.57;;;8.90;99.90;;;;;;4995554;28;20169;-77
2022/11/25 08:49:18;;;;;;;8.70;5.47;;;8.80;99.90;;;;;;4994965;28;20467;-77
2022/11/25 08:51:44;;;;;;;7.70;4.93;;;9.00;99.90;;;;;;4995177;28;20167;-76
2022/11/25 08:54:10;;;;;;;7.00;4.63;;;9.10;99.90;;;;;;4993843;28;20450;-76
2022/11/25 08:56:36;;;;;;;9.03;6.30;;;9.20;99.90;;;;;;4994443;28;20179;-76
2022/11/25 08:59:02;;;;;;;7.60;4.97;;;9.30;99.90;;;;;;4993570;28;20188;-77
2022/11/25 09:01:28;;;;;;;7.93;5.70;;;9.30;99.90;;;;;;4995136;28;20412;-76
2022/11/25 09:03:56;;;;;;;7.37;5.50;;;9.40;99.90;;;;;;4994856;28;20799;-76
2022/11/25 09:06:23;;;;;;;6.43;5.10;;;9.50;99.90;;;;;;4995279;28;20475;-76
2022/11/25 09:08:50;;;;;;;6.10;4.63;;;9.60;99.90;;;;;;4994661;28;20452;-77
2022/11/25 09:11:16;;;;;;;6.00;5.00;;;9.60;99.90;;;;;;4996325;28;20835;-77
2022/11/25 09:13:41;;;;;;;8.23;4.60;;;9.60;99.90;;;;;;4995629;28;20792;-76
2022/11/25 09:16:08;;;;;;;6.37;4.60;;;9.50;99.90;;;;;;4995540;28;20408;-76
2022/11/25 09:18:35;;;;;;;8.33;4.73;;;9.20;99.90;;;;;;4994991;28;20177;-77
2022/11/25 09:21:08;;;;;;;5.43;4.10;;;9.40;99.90;;;;;;4994781;28;20506;-77
2022/11/25 09:23:33;;;;;;;5.97;4.00;;;9.60;99.90;;;;;;4994164;28;20422;-77
2022/11/25 09:25:59;;;;;;;5.43;4.30;;;9.70;99.90;;;;;;4994324;28;20930;-76
2022/11/25 09:28:25;;;;;;;7.80;4.30;;;10.00;99.90;;;;;;4994050;28;20718;-76
2022/11/25 09:30:52;;;;;;;5.60;3.90;;;10.00;99.90;;;;;;4993156;28;20687;-77
2022/11/25 09:33:18;;;;;;;9.50;4.47;;;10.30;99.90;;;;;;4994833;28;20799;-77
2022/11/25 09:35:44;;;;;;;5.90;3.97;;;10.50;99.90;;;;;;4995130;28;20436;-77
2022/11/25 09:38:10;;;;;;;7.33;3.40;;;10.50;99.90;;;;;;4995540;28;20435;-77
2022/11/25 09:40:52;;;;;;;6.70;4.10;;;10.60;99.90;;;;;;4981516;28;20432;-77
2022/11/25 09:46:56;;;;;;;6.87;3.50;;;10.60;99.90;;;;;;4995043;28;20842;-77
2022/11/25 09:49:39;;;;;;;5.03;2.77;;;10.70;99.90;;;;;;4976936;28;20458;-76
2022/11/25 09:52:22;;;;;;;6.23;3.10;;;10.80;99.90;;;;;;4994903;28;20392;-76
2022/11/25 09:54:52;;;;;;;5.00;3.30;;;11.10;99.90;;;;;;4994420;28;20384;-76
2022/11/25 09:57:29;;;;;;;6.43;4.03;;;10.90;99.90;;;;;;4994786;28;20453;-76
2022/11/25 10:00:05;;;;;;;8.77;3.87;;;11.00;99.90;;;;;;4994723;28;20915;-76
2022/11/25 10:02:43;;;;;;;5.80;3.27;;;11.10;99.90;;;;;;4992972;28;20431;-76
2022/11/25 10:05:26;;;;;;;4.00;2.97;;;11.20;99.90;;;;;;4993689;28;20384;-77
2022/11/25 10:08:00;;;;;;;6.33;3.50;;;11.30;99.90;;;;;;4993998;28;20441;-76
2022/11/25 10:10:29;;;;;;;8.97;4.27;;;11.30;99.90;;;;;;4994477;28;20399;-77
2022/11/25 10:12:57;;;;;;;6.43;4.17;;;11.40;99.90;;;;;;4997058;28;20431;-77
2022/11/25 10:15:26;;;;;;;7.30;4.97;;;11.50;99.90;;;;;;4998171;28;20450;-77
2022/11/25 10:17:56;;;;;;;8.83;5.30;;;11.40;99.90;;;;;;4998163;28;20980;-77
2022/11/25 10:20:29;;;;;;;11.70;7.20;;;11.40;99.90;;;;;;4978276;28;20404;-77
2022/11/25 10:23:00;;;;;;;11.87;8.13;;;10.70;99.90;;;;;;4994621;28;20436;-77
2022/11/25 10:25:36;;;;;;;9.10;5.93;;;10.60;99.90;;;;;;4995204;28;20419;-78
2022/11/25 10:28:20;;;;;;;14.03;8.10;;;10.50;99.90;;;;;;4994651;28;20446;-78
2022/11/25 10:31:07;;;;;;;14.63;9.17;;;10.80;99.90;;;;;;4994011;28;20419;-75
2022/11/25 10:33:39;;;;;;;11.60;8.87;;;11.40;99.90;;;;;;4992386;28;20435;-76
2022/11/25 10:36:14;;;;;;;6.60;4.23;;;11.80;99.90;;;;;;4993453;28;20940;-76
2022/11/25 10:38:58;;;;;;;9.23;4.77;;;12.10;99.90;;;;;;4993646;28;20411;-76
2022/11/25 10:41:28;;;;;;;6.90;4.30;;;12.60;99.90;;;;;;4994243;28;20764;-76
2022/11/25 10:43:54;;;;;;;5.20;3.77;;;12.90;99.90;;;;;;4994563;28;20440;-76
2022/11/25 10:46:39;;;;;;;4.03;2.80;;;13.30;99.90;;;;;;4993632;28;20403;-77
2022/11/25 10:49:11;;;;;;;5.63;3.13;;;13.30;99.90;;;;;;4993815;28;20200;-76
2022/11/25 10:51:46;;;;;;;3.90;2.87;;;12.90;99.90;;;;;;4993266;28;20826;-76
2022/11/25 10:54:23;;;;;;;4.87;2.87;;;12.80;99.90;;;;;;4992947;28;20888;-77
2022/11/25 10:56:51;;;;;;;3.40;2.30;;;12.80;99.90;;;;;;4993345;28;20394;-77
2022/11/25 10:59:37;;;;;;;5.43;2.77;;;13.00;99.90;;;;;;4992278;28;20493;-78
2022/11/25 11:02:26;;;;;;;6.23;2.90;;;13.00;99.90;;;;;;4992889;28;20425;-77
2022/11/25 11:05:08;;;;;;;4.90;2.57;;;12.90;99.90;;;;;;4975426;28;20422;-77
2022/11/25 11:07:41;;;;;;;3.97;3.00;;;12.50;99.90;;;;;;4993241;28;20868;-77
2022/11/25 11:10:24;;;;;;;10.30;3.20;;;12.40;99.90;;;;;;5000618;28;20398;-76
2022/11/25 11:13:23;;;;;;;4.40;2.83;;;12.30;99.90;;;;;;5009387;28;20441;-76
2022/11/25 11:15:49;;;;;;;5.20;3.03;;;12.40;99.90;;;;;;4975658;28;20451;-77
2022/11/25 11:18:22;;;;;;;5.40;2.93;;;12.30;99.90;;;;;;4974573;28;20413;-76
2022/11/25 11:20:54;;;;;;;6.33;2.70;;;12.30;99.90;;;;;;4977680;28;20399;-77
2022/11/25 11:23:21;;;;;;;9.37;3.40;;;12.30;99.90;;;;;;4977352;28;20428;-77
2022/11/25 11:26:04;;;;;;;5.30;3.20;;;12.20;99.90;;;;;;4977213;28;20412;-76
2022/11/25 11:28:35;;;;;;;6.03;3.37;;;12.20;99.90;;;;;;4978253;28;20469;-78
2022/11/25 11:31:16;;;;;;;5.43;4.10;;;12.00;99.90;;;;;;4995889;28;20413;-75
2022/11/25 11:33:58;;;;;;;8.03;6.23;;;11.80;99.90;;;;;;4995987;28;20467;-76
2022/11/25 11:36:48;;;;;;;11.97;8.37;;;11.40;99.90;;;;;;4998383;28;20431;-77
2022/11/25 11:39:46;;;;;;;11.90;7.37;;;10.90;99.90;;;;;;4996201;28;20431;-76
2022/11/25 11:42:44;;;;;;;8.60;6.80;;;10.10;99.90;;;;;;4996942;28;20411;-76
2022/11/25 11:45:28;;;;;;;8.43;7.50;;;10.00;99.90;;;;;;4998224;28;20395;-76
2022/11/25 11:48:18;;;;;;;8.80;6.13;;;9.90;99.90;;;;;;4998256;28;20565;-78
2022/11/25 11:50:56;;;;;;;12.10;6.40;;;9.90;99.90;;;;;;4998265;28;20777;-77
2022/11/25 11:53:46;;;;;;;8.83;6.40;;;10.10;99.90;;;;;;4997161;28;20554;-77
2022/11/25 11:56:28;;;;;;;12.10;7.20;;;10.30;99.90;;;;;;4997328;28;20387;-79
2022/11/25 11:59:15;;;;;;;8.80;6.37;;;10.60;99.90;;;;;;4997035;28;20492;-76
2022/11/25 12:01:49;;;;;;;9.67;6.13;;;10.70;99.90;;;;;;4997401;28;20913;-76
2022/11/25 12:04:35;;;;;;;13.97;8.10;;;10.70;99.90;;;;;;4996023;28;20811;-75
2022/11/25 12:07:25;;;;;;;9.63;8.63;;;10.80;99.90;;;;;;4997052;28;20422;-75
2022/11/25 12:09:58;;;;;;;11.07;7.60;;;10.90;99.90;;;;;;4996949;28;20476;-77
2022/11/25 12:13:01;;;;;;;10.53;8.53;;;10.90;99.90;;;;;;4996021;28;20414;-75
2022/11/25 12:15:39;;;;;;;13.03;8.40;;;11.00;99.90;;;;;;4955363;28;20455;-74
2022/11/25 12:18:23;;;;;;;12.83;9.60;;;10.90;99.90;;;;;;4995557;28;20423;-77
2022/11/25 12:21:02;;;;;;;10.53;8.80;;;10.80;99.90;;;;;;4996043;28;20420;-74
2022/11/25 12:23:49;;;;;;;10.17;8.97;;;10.90;99.90;;;;;;4994621;28;20431;-77
2022/11/25 12:26:21;;;;;;;8.20;7.13;;;11.00;99.90;;;;;;4995258;28;20466;-77
2022/11/25 12:29:01;;;;;;;10.43;7.70;;;11.00;99.90;;;;;;4994721;28;20475;-76
2022/11/25 12:31:36;;;;;;;16.77;15.43;;;11.10;99.90;;;;;;4995262;28;20383;-76
2022/11/25 12:34:09;;;;;;;9.80;7.00;;;11.10;99.90;;;;;;4994135;28;21026;-76
2022/11/25 12:36:38;;;;;;;8.90;7.20;;;11.10;99.90;;;;;;4997202;28;20426;-76
2022/11/25 12:39:22;;;;;;;9.80;8.50;;;11.10;99.90;;;;;;4995185;28;20830;-77
2022/11/25 12:41:53;;;;;;;8.80;6.80;;;11.10;99.90;;;;;;4995858;28;20403;-76
2022/11/25 12:44:30;;;;;;;10.53;7.40;;;11.20;99.90;;;;;;4995835;28;20431;-77
2022/11/25 12:46:56;;;;;;;9.17;7.10;;;11.30;99.90;;;;;;4995318;28;20385;-76
2022/11/25 12:49:31;;;;;;;11.23;6.77;;;11.40;99.90;;;;;;4995027;28;20463;-76
2022/11/25 12:52:17;;;;;;;8.20;7.40;;;11.50;99.90;;;;;;4995234;28;20769;-77
2022/11/25 12:55:04;;;;;;;8.27;7.43;;;11.50;99.90;;;;;;4994748;28;20488;-75
2022/11/25 12:57:49;;;;;;;10.50;6.87;;;11.50;99.90;;;;;;4977656;28;20438;-77
2022/11/25 13:00:25;;;;;;;8.67;5.33;;;11.60;99.90;;;;;;4978674;28;20416;-77
2022/11/25 13:03:14;;;;;;;8.60;6.37;;;11.30;99.90;;;;;;4996936;28;20824;-79
2022/11/25 13:05:48;;;;;;;7.43;6.03;;;11.10;99.90;;;;;;4996427;28;20395;-77
2022/11/25 13:08:32;;;;;;;13.40;7.63;;;10.80;99.90;;;;;;4994491;28;20457;-74
2022/11/25 13:11:24;;;;;;;19.10;10.77;;;11.00;99.90;;;;;;4996617;28;20737;-77
2022/11/25 13:14:12;;;;;;;13.37;9.10;;;10.90;99.90;;;;;;4976576;28;20435;-76
2022/11/25 13:16:38;;;;;;;15.03;10.67;;;10.90;99.90;;;;;;4997456;28;20455;-76